Terminal Aerodrome Forecast
Issued by NWS

Home | Current Version | Previous Version | Text Only | Print | Product List | Glossary On
Versions: 1 2 3 4 5 6 7 8 9 10 11 12 13 14 15 16 17 18
524
FTUS42 KFFC 242338
TAFRYY
TAF
KRYY 242338Z 2500/2524 VRB05KT P6SM FEW040 SCT150 OVC250
     FM251300 30005KT P6SM VCSH SCT020 SCT200
     FM251500 32007KT P6SM VCSH BKN030 BKN100 PROB30 2515/2521 4SM
      -TSRA BKN035CB
      AMD NOT SKED 2504/2512=

USA.gov is the U.S. government's official web portal to all federal, state and local government web resources and services.